createdAt,value
2019-05-14T00:01:22.251Z,3.43
2019-05-14T00:03:51.982Z,3.10
2019-05-14T00:06:22.768Z,3.63
2019-05-14T00:08:52.534Z,3.70
2019-05-14T00:11:23.857Z,3.40
2019-05-14T00:13:53.533Z,3.03
2019-05-14T00:16:24.309Z,3.17
2019-05-14T00:18:54.438Z,2.90
2019-05-14T00:21:24.229Z,2.97
2019-05-14T00:23:53.961Z,2.80
2019-05-14T00:26:23.668Z,3.37
2019-05-14T00:28:56.071Z,3.23
2019-05-14T00:31:25.827Z,3.40
2019-05-14T00:33:55.466Z,2.63
2019-05-14T00:36:25.103Z,2.70
2019-05-14T00:38:54.870Z,2.73
2019-05-14T00:41:24.458Z,2.80
2019-05-14T00:43:54.173Z,2.60
2019-05-14T00:46:23.930Z,2.63
2019-05-14T00:48:56.985Z,2.40
2019-05-14T00:51:28.097Z,2.60
2019-05-14T00:53:57.828Z,2.10
2019-05-14T00:56:27.542Z,2.20
2019-05-14T00:58:57.195Z,2.50
2019-05-14T01:01:26.925Z,2.63
2019-05-14T01:03:56.638Z,2.30
2019-05-14T01:06:27.890Z,2.30
2019-05-14T01:08:57.523Z,2.60
2019-05-14T01:11:27.247Z,2.73
2019-05-14T01:13:56.985Z,2.10
2019-05-14T01:16:26.751Z,1.90
2019-05-14T01:18:56.455Z,2.50
2019-05-14T01:21:26.191Z,2.00
2019-05-14T01:23:55.884Z,2.47
2019-05-14T01:26:30.948Z,2.03
2019-05-14T01:29:03.071Z,2.30
2019-05-14T01:31:32.836Z,3.00
2019-05-14T01:34:02.555Z,2.87
2019-05-14T01:36:32.260Z,2.87
2019-05-14T01:39:02.023Z,3.57
2019-05-14T01:41:33.095Z,2.57
2019-05-14T01:44:03.091Z,2.40
2019-05-14T01:46:32.707Z,2.53
2019-05-14T01:49:02.401Z,2.00
2019-05-14T01:51:32.033Z,2.17
2019-05-14T01:54:01.776Z,2.17
2019-05-14T01:56:31.867Z,2.37
2019-05-14T01:59:01.895Z,2.10
2019-05-14T02:01:31.771Z,2.10
2019-05-14T02:04:02.999Z,1.80
2019-05-14T02:06:32.657Z,1.87
2019-05-14T02:09:02.389Z,1.83
2019-05-14T02:11:33.313Z,1.90
2019-05-14T02:14:03.891Z,1.70
2019-05-14T02:16:35.822Z,1.63
2019-05-14T02:19:05.507Z,1.47
2019-05-14T02:21:35.312Z,1.67
2019-05-14T02:24:04.879Z,1.50
2019-05-14T02:26:34.612Z,1.70
2019-05-14T02:29:04.359Z,1.60
2019-05-14T02:31:34.132Z,1.40
2019-05-14T02:34:03.909Z,1.43
2019-05-14T02:36:33.564Z,1.30
2019-05-14T02:39:03.381Z,1.40
2019-05-14T02:41:33.181Z,1.50
2019-05-14T02:44:02.889Z,1.70
2019-05-14T02:46:33.851Z,1.40
2019-05-14T02:49:05.995Z,1.40
2019-05-14T02:51:38.926Z,1.57
2019-05-14T02:54:10.752Z,1.53
2019-05-14T02:56:40.423Z,1.80
2019-05-14T02:59:10.279Z,1.67
2019-05-14T03:01:40.871Z,2.33
2019-05-14T03:04:10.896Z,1.40
2019-05-14T03:06:40.567Z,1.60
2019-05-14T03:09:10.161Z,1.97
2019-05-14T03:11:40.545Z,1.50
2019-05-14T03:14:10.537Z,1.90
2019-05-14T03:16:41.426Z,1.57
2019-05-14T03:19:11.159Z,1.50
2019-05-14T03:21:41.115Z,1.63
2019-05-14T03:24:12.246Z,1.80
2019-05-14T03:26:41.949Z,2.30
2019-05-14T03:29:11.705Z,2.63
2019-05-14T03:31:43.233Z,2.10
2019-05-14T03:34:14.637Z,1.90
2019-05-14T03:36:44.503Z,1.77
2019-05-14T03:39:14.265Z,2.00
2019-05-14T03:41:44.101Z,2.03
2019-05-14T03:44:13.954Z,1.50
2019-05-14T03:46:54.871Z,1.63
2019-05-14T03:49:19.830Z,2.13
2019-05-14T03:51:49.828Z,2.17
2019-05-14T03:54:20.146Z,2.13
2019-05-14T03:56:50.099Z,1.70
2019-05-14T03:59:20.171Z,2.00
2019-05-14T04:01:51.012Z,2.13
2019-05-14T04:04:22.491Z,2.17
2019-05-14T04:06:53.068Z,1.97
2019-05-14T04:09:22.851Z,2.23
2019-05-14T04:11:53.562Z,1.87
2019-05-14T04:14:24.972Z,1.70
2019-05-14T04:17:08.326Z,1.50
2019-05-14T04:19:29.815Z,1.50
2019-05-14T04:22:00.045Z,1.60
2019-05-14T04:24:31.018Z,1.73
2019-05-14T04:27:07.790Z,1.97
2019-05-14T04:29:34.815Z,1.77
2019-05-14T04:32:09.172Z,1.80
2019-05-14T04:34:39.748Z,2.00
2019-05-14T04:37:10.343Z,3.23
2019-05-14T04:39:40.132Z,2.00
2019-05-14T04:42:10.044Z,1.67
2019-05-14T04:44:40.620Z,1.67
2019-05-14T04:47:27.910Z,1.40
2019-05-14T04:49:41.840Z,1.60
2019-05-14T04:52:11.395Z,2.00
2019-05-14T04:54:41.062Z,2.00
2019-05-14T04:57:13.033Z,1.40
2019-05-14T04:59:49.433Z,1.50
2019-05-14T05:02:19.733Z,1.50
2019-05-14T05:04:50.862Z,1.90
2019-05-14T05:07:20.894Z,2.33
2019-05-14T05:09:50.641Z,2.10
2019-05-14T05:12:20.179Z,2.50
2019-05-14T05:14:49.926Z,4.33
2019-05-14T05:17:19.805Z,2.13
2019-05-14T05:19:51.548Z,2.62
2019-05-14T05:22:20.864Z,2.17
2019-05-14T05:24:51.731Z,2.07
2019-05-14T05:27:22.280Z,2.60
2019-05-14T05:29:51.841Z,2.77
2019-05-14T05:32:21.546Z,3.07
2019-05-14T05:34:51.204Z,3.25
2019-05-14T05:37:20.905Z,3.52
2019-05-14T05:39:50.548Z,3.17
2019-05-14T05:42:20.122Z,3.27
2019-05-14T05:44:49.761Z,3.70
2019-05-14T05:47:19.236Z,4.63
2019-05-14T05:49:49.024Z,3.73
2019-05-14T05:52:19.118Z,4.47
2019-05-14T05:54:49.183Z,3.53
2019-05-14T05:57:18.995Z,3.50
2019-05-14T05:59:48.793Z,3.70
2019-05-14T06:02:18.777Z,4.23
2019-05-14T06:04:48.877Z,2.97
2019-05-14T06:07:18.506Z,3.30
2019-05-14T06:09:48.438Z,2.87
2019-05-14T06:12:19.040Z,2.80
2019-05-14T06:14:51.002Z,2.70
2019-05-14T06:17:20.456Z,3.20
2019-05-14T06:19:49.986Z,3.00
2019-05-14T06:22:19.504Z,3.00
2019-05-14T06:24:49.015Z,2.70
2019-05-14T06:27:18.544Z,2.77
2019-05-14T06:29:48.904Z,3.00
2019-05-14T06:32:18.862Z,3.60
2019-05-14T06:34:49.092Z,2.80
2019-05-14T06:37:19.662Z,2.60
2019-05-14T06:39:49.141Z,2.80
2019-05-14T06:42:19.259Z,2.87
2019-05-14T06:44:49.484Z,3.33
2019-05-14T06:47:19.220Z,3.40
2019-05-14T06:49:49.061Z,3.57
2019-05-14T06:52:19.635Z,3.40
2019-05-14T06:54:49.815Z,3.80
2019-05-14T06:57:20.324Z,3.00
2019-05-14T06:59:49.821Z,3.00
2019-05-14T07:02:19.503Z,2.83
2019-05-14T07:04:49.314Z,3.00
2019-05-14T07:07:20.554Z,3.43
2019-05-14T07:09:50.089Z,2.70
2019-05-14T07:12:19.733Z,2.87
2019-05-14T07:14:49.173Z,2.95
2019-05-14T07:17:18.649Z,3.00
2019-05-14T07:19:48.977Z,3.40
2019-05-14T07:22:19.565Z,2.40
2019-05-14T07:24:50.495Z,2.37
2019-05-14T07:27:19.995Z,2.20
2019-05-14T07:29:49.548Z,2.22
2019-05-14T07:32:19.367Z,2.77
2019-05-14T07:34:49.104Z,2.43
2019-05-14T07:37:21.041Z,1.80
2019-05-14T07:39:50.466Z,2.10
2019-05-14T07:42:20.087Z,1.70
2019-05-14T07:44:49.860Z,1.70
2019-05-14T07:47:19.394Z,1.60
2019-05-14T07:49:49.178Z,1.53
2019-05-14T07:52:20.326Z,1.70
2019-05-14T07:54:49.877Z,2.00
2019-05-14T07:57:19.758Z,1.50
2019-05-14T07:59:50.538Z,1.63
2019-05-14T08:02:20.111Z,1.40
2019-05-14T08:04:49.737Z,1.30
2019-05-14T08:07:19.421Z,1.30
2019-05-14T08:09:49.541Z,1.40
2019-05-14T08:12:19.416Z,1.30
2019-05-14T08:15:09.303Z,1.50
2019-05-14T08:17:20.470Z,1.50
2019-05-14T08:19:50.096Z,1.50
2019-05-14T08:22:21.090Z,1.27
2019-05-14T08:24:50.774Z,1.80
2019-05-14T08:27:20.383Z,1.10
2019-05-14T08:29:50.163Z,1.30
2019-05-14T08:32:20.274Z,2.37
2019-05-14T08:34:49.859Z,2.80
2019-05-14T08:37:19.413Z,1.60
2019-05-14T08:39:49.043Z,1.30
2019-05-14T08:42:18.815Z,1.33
2019-05-14T08:44:51.376Z,1.47
2019-05-14T08:47:31.424Z,2.03
2019-05-14T08:50:01.883Z,1.47
2019-05-14T08:52:33.646Z,1.47
2019-05-14T08:55:10.167Z,1.47
2019-05-14T08:57:35.478Z,1.53
2019-05-14T09:00:13.517Z,1.90
2019-05-14T09:02:39.257Z,1.60
2019-05-14T09:05:10.194Z,1.80
2019-05-14T09:07:40.560Z,2.30
2019-05-14T09:10:10.432Z,1.80
2019-05-14T09:12:40.237Z,1.90
2019-05-14T09:15:10.105Z,2.53
2019-05-14T09:17:39.874Z,1.83
2019-05-14T09:20:28.920Z,1.80
2019-05-14T09:22:59.481Z,2.00
2019-05-14T09:25:29.322Z,1.60
2019-05-14T09:27:58.795Z,2.00
2019-05-14T09:30:29.327Z,1.67
2019-05-14T09:32:59.451Z,2.43
2019-05-14T09:35:29.381Z,2.40
2019-05-14T09:37:59.336Z,2.27
2019-05-14T09:40:29.199Z,2.80
2019-05-14T09:42:58.896Z,2.47
2019-05-14T09:45:29.555Z,2.80
2019-05-14T09:47:59.278Z,2.50
2019-05-14T09:50:33.921Z,2.60
2019-05-14T09:53:09.725Z,2.23
2019-05-14T09:55:40.818Z,2.57
2019-05-14T09:58:14.302Z,2.50
2019-05-14T10:00:45.021Z,2.80
2019-05-14T10:03:15.187Z,2.67
2019-05-14T10:05:44.746Z,2.33
2019-05-14T10:08:19.230Z,2.60
2019-05-14T10:10:53.643Z,2.27
2019-05-14T10:22:43.161Z,2.80
2019-05-14T10:25:12.914Z,2.47
2019-05-14T10:27:42.606Z,2.17
2019-05-14T10:30:12.278Z,2.60
2019-05-14T10:32:42.005Z,2.77
2019-05-14T10:35:13.174Z,2.55
2019-05-14T10:37:42.730Z,2.47
2019-05-14T10:40:12.304Z,2.70
2019-05-14T10:42:41.893Z,2.50
2019-05-14T10:45:12.873Z,2.27
2019-05-14T10:47:43.119Z,2.97
2019-05-14T10:50:14.026Z,2.70
2019-05-14T10:52:43.753Z,2.27
2019-05-14T10:55:13.283Z,2.10
2019-05-14T10:57:42.994Z,2.87
2019-05-14T11:00:12.869Z,1.97
2019-05-14T11:02:45.092Z,2.30
2019-05-14T11:05:14.648Z,2.23
2019-05-14T11:07:44.686Z,2.27
2019-05-14T11:10:15.905Z,1.97
2019-05-14T11:12:46.187Z,1.80
2019-05-14T11:15:15.744Z,3.40
2019-05-14T11:17:45.265Z,2.83
2019-05-14T11:20:14.915Z,1.90
2019-05-14T11:22:44.468Z,2.35
2019-05-14T11:25:14.057Z,2.35
2019-05-14T11:27:44.191Z,2.30
2019-05-14T11:30:13.985Z,1.80
2019-05-14T11:32:43.692Z,2.10
2019-05-14T11:35:13.328Z,1.97
2019-05-14T11:37:42.928Z,2.30
2019-05-14T11:40:12.552Z,2.17
2019-05-14T11:42:42.186Z,1.80
2019-05-14T11:45:11.709Z,2.20
2019-05-14T11:47:42.397Z,2.07
2019-05-14T11:50:12.188Z,2.17
2019-05-14T11:52:41.761Z,2.53
2019-05-14T11:55:11.388Z,2.23
2019-05-14T11:57:40.958Z,2.13
2019-05-14T12:00:10.994Z,2.33
2019-05-14T12:02:40.682Z,2.33
2019-05-14T12:05:10.398Z,2.70
2019-05-14T12:07:40.156Z,3.03
2019-05-14T12:10:10.267Z,2.20
2019-05-14T12:12:39.892Z,2.53
2019-05-14T12:15:09.648Z,2.33
2019-05-14T12:17:39.720Z,2.50
2019-05-14T12:20:09.651Z,2.40
2019-05-14T12:22:39.554Z,2.30
2019-05-14T12:25:11.167Z,1.90
2019-05-14T12:27:40.864Z,2.60
2019-05-14T12:30:10.942Z,2.40
2019-05-14T12:32:40.543Z,3.70
2019-05-14T12:35:10.690Z,2.73
2019-05-14T12:37:40.462Z,2.50
2019-05-14T12:40:10.162Z,2.70
2019-05-14T12:42:40.905Z,3.30
2019-05-14T12:45:10.715Z,3.47
2019-05-14T12:47:40.239Z,3.10
2019-05-14T12:50:11.251Z,3.77
2019-05-14T12:52:40.794Z,3.40
2019-05-14T12:55:11.827Z,3.03
2019-05-14T12:57:41.312Z,3.00
2019-05-14T13:00:11.689Z,3.10
2019-05-14T13:02:41.168Z,3.23
2019-05-14T13:05:10.620Z,2.73
2019-05-14T13:07:41.808Z,2.63
2019-05-14T13:10:11.260Z,2.80
2019-05-14T13:12:40.794Z,3.57
2019-05-14T13:15:10.384Z,2.83
2019-05-14T13:17:39.915Z,2.37
2019-05-14T13:20:13.643Z,3.17
2019-05-14T13:22:45.887Z,2.97
2019-05-14T13:25:13.056Z,2.57
2019-05-14T13:27:42.732Z,2.60
2019-05-14T13:30:12.434Z,2.20
2019-05-14T13:32:43.012Z,2.47
2019-05-14T13:35:13.865Z,2.60
2019-05-14T13:37:43.933Z,2.47
2019-05-14T13:40:14.285Z,2.90
2019-05-14T13:42:45.563Z,2.40
2019-05-14T13:45:18.821Z,3.07
2019-05-14T13:47:49.073Z,2.40
2019-05-14T13:50:19.756Z,3.00
2019-05-14T13:53:02.287Z,2.30
2019-05-14T13:55:21.415Z,3.20
2019-05-14T13:57:51.312Z,2.70
2019-05-14T14:00:21.015Z,2.23
2019-05-14T14:02:50.749Z,2.73
2019-05-14T14:05:20.616Z,3.00
2019-05-14T14:07:50.986Z,2.40
2019-05-14T14:10:20.824Z,2.40
2019-05-14T14:12:50.530Z,2.37
2019-05-14T14:15:21.763Z,2.73
2019-05-14T14:17:51.488Z,2.80
2019-05-14T14:20:22.381Z,2.77
2019-05-14T14:22:52.193Z,2.57
2019-05-14T14:25:23.437Z,3.47
2019-05-14T14:27:53.212Z,2.63
2019-05-14T14:30:24.684Z,2.87
2019-05-14T14:32:54.439Z,3.63
2019-05-14T14:35:24.828Z,3.13
2019-05-14T14:37:55.825Z,2.90
2019-05-14T14:40:25.572Z,2.67
2019-05-14T14:42:55.238Z,2.60
2019-05-14T14:45:25.063Z,2.87
2019-05-14T14:47:55.635Z,3.00
2019-05-14T14:50:25.408Z,3.10
2019-05-14T14:52:55.049Z,2.90
2019-05-14T14:55:24.820Z,3.03
2019-05-14T14:57:55.396Z,3.20
2019-05-14T15:00:25.468Z,3.23
2019-05-14T15:02:55.294Z,2.60
2019-05-14T15:05:29.328Z,2.60
2019-05-14T15:08:00.192Z,2.93
2019-05-14T15:10:28.858Z,2.90
2019-05-14T15:12:59.952Z,3.30
2019-05-14T15:15:32.219Z,2.90
2019-05-14T15:18:01.257Z,2.40
2019-05-14T15:20:30.996Z,3.13
2019-05-14T15:23:00.699Z,2.97
2019-05-14T15:25:30.415Z,3.20
2019-05-14T15:28:01.764Z,3.47
2019-05-14T15:30:31.476Z,3.70
2019-05-14T15:33:01.219Z,3.80
2019-05-14T15:35:32.199Z,3.50
2019-05-14T15:38:01.970Z,3.30
2019-05-14T15:40:33.361Z,3.90
2019-05-14T15:43:03.403Z,4.42
2019-05-14T15:45:33.221Z,3.87
2019-05-14T15:48:08.694Z,3.70
2019-05-14T15:50:39.139Z,2.85
2019-05-14T15:53:11.227Z,3.80
2019-05-14T15:55:41.003Z,3.43
2019-05-14T15:58:10.735Z,3.20
2019-05-14T16:00:40.431Z,2.80
2019-05-14T16:03:10.204Z,2.87
2019-05-14T16:05:39.906Z,2.77
2019-05-14T16:08:09.635Z,2.77
2019-05-14T16:10:39.915Z,2.73
2019-05-14T16:13:09.877Z,2.97
2019-05-14T16:15:39.529Z,2.87
2019-05-14T16:18:18.303Z,3.00
2019-05-14T16:20:40.557Z,2.90
2019-05-14T16:23:11.066Z,3.00
2019-05-14T16:25:42.052Z,2.93
2019-05-14T16:28:11.741Z,3.27
2019-05-14T16:30:41.587Z,3.30
2019-05-14T16:33:11.288Z,3.50
2019-05-14T16:35:40.942Z,3.70
2019-05-14T16:38:13.650Z,3.30
2019-05-14T16:40:43.812Z,3.73
2019-05-14T16:43:13.434Z,3.07
2019-05-14T16:45:43.202Z,4.10
2019-05-14T16:48:12.919Z,3.30
2019-05-14T16:50:42.418Z,3.27
2019-05-14T16:53:11.966Z,3.70
2019-05-14T16:55:44.248Z,3.53
2019-05-14T16:58:13.898Z,3.67
2019-05-14T17:00:43.474Z,3.50
2019-05-14T17:03:13.085Z,3.50
2019-05-14T17:05:43.227Z,3.10
2019-05-14T17:08:12.834Z,4.20
2019-05-14T17:10:44.390Z,3.10
2019-05-14T17:13:13.628Z,5.50
2019-05-14T17:15:43.104Z,3.87
2019-05-14T17:18:12.569Z,3.30
2019-05-14T17:20:42.080Z,3.10
2019-05-14T17:23:11.542Z,3.03
2019-05-14T17:25:41.071Z,3.53
2019-05-14T17:28:10.576Z,3.03
2019-05-14T17:30:40.135Z,2.87
2019-05-14T17:33:10.174Z,3.37
2019-05-14T17:35:40.902Z,3.60
2019-05-14T17:38:10.526Z,3.25
2019-05-14T17:40:40.051Z,3.57
2019-05-14T17:43:12.683Z,4.05
2019-05-14T17:45:43.297Z,4.03
2019-05-14T17:48:14.520Z,3.60
2019-05-14T17:50:45.659Z,3.73
2019-05-14T17:53:24.152Z,6.47
2019-05-14T17:55:56.325Z,3.60
2019-05-14T17:58:28.825Z,4.60
2019-05-14T18:00:58.379Z,4.30
2019-05-14T18:03:30.726Z,4.62
2019-05-14T18:06:02.968Z,4.20
2019-05-14T18:08:32.466Z,4.20
2019-05-14T18:11:08.749Z,3.90
2019-05-14T18:13:39.081Z,3.87
2019-05-14T18:16:09.278Z,3.63
2019-05-14T18:18:39.122Z,3.83
2019-05-14T18:21:09.411Z,4.23
2019-05-14T18:23:41.867Z,4.57
2019-05-14T18:26:10.451Z,4.25
2019-05-14T18:28:58.073Z,4.47
2019-05-14T18:31:27.746Z,3.47
2019-05-14T18:33:58.798Z,3.90
2019-05-14T18:36:28.621Z,4.33
2019-05-14T18:38:58.728Z,3.60
2019-05-14T18:41:29.291Z,3.70
2019-05-14T18:43:59.080Z,4.40
2019-05-14T18:46:28.847Z,4.20
2019-05-14T18:48:59.229Z,4.80
2019-05-14T18:51:30.283Z,5.60
2019-05-14T18:54:19.027Z,5.57
2019-05-14T18:56:48.968Z,4.47
2019-05-14T18:59:21.372Z,4.65
2019-05-14T19:01:53.931Z,4.17
2019-05-14T19:04:23.361Z,4.00
2019-05-14T19:06:53.802Z,3.83
2019-05-14T19:09:23.418Z,3.70
2019-05-14T19:11:53.090Z,3.60
2019-05-14T19:14:22.605Z,4.30
2019-05-14T19:16:52.143Z,4.23
2019-05-14T19:19:21.699Z,3.57
2019-05-14T19:21:52.821Z,3.80
2019-05-14T19:24:24.409Z,4.17
2019-05-14T19:26:54.198Z,3.57
2019-05-14T19:29:24.559Z,3.37
2019-05-14T19:31:54.067Z,4.10
2019-05-14T19:34:44.447Z,3.30
2019-05-14T19:37:15.009Z,3.80
2019-05-14T19:39:47.919Z,3.30
2019-05-14T19:42:18.325Z,3.52
2019-05-14T19:44:48.418Z,3.33
2019-05-14T19:47:18.776Z,3.47
2019-05-14T19:49:52.430Z,3.90
2019-05-14T19:52:21.967Z,3.80
2019-05-14T19:54:52.598Z,4.00
2019-05-14T19:57:22.183Z,3.60
2019-05-14T19:59:51.909Z,3.60
2019-05-14T20:02:21.618Z,4.43
2019-05-14T20:04:51.201Z,4.80
2019-05-14T20:07:20.828Z,4.33
2019-05-14T20:09:50.431Z,4.63
2019-05-14T20:12:19.923Z,3.87
2019-05-14T20:14:49.644Z,4.27
2019-05-14T20:17:22.303Z,4.17
2019-05-14T20:19:51.911Z,4.40
2019-05-14T20:22:21.553Z,3.87
2019-05-14T20:24:51.150Z,4.70
2019-05-14T20:27:20.758Z,4.13
2019-05-14T20:29:50.284Z,4.50
2019-05-14T20:32:19.908Z,4.43
2019-05-14T20:34:49.591Z,4.70
2019-05-14T20:37:19.267Z,3.97
2019-05-14T20:39:49.929Z,4.03
2019-05-14T20:42:22.716Z,4.43
2019-05-14T20:44:52.258Z,4.83
2019-05-14T20:47:21.805Z,4.43
2019-05-14T20:49:51.415Z,3.73
2019-05-14T20:52:21.010Z,4.37
2019-05-14T20:54:50.678Z,4.60
2019-05-14T20:57:26.892Z,4.80
2019-05-14T20:59:53.024Z,4.40
2019-05-14T21:02:22.639Z,5.70
2019-05-14T21:04:54.574Z,4.63
2019-05-14T21:07:23.327Z,4.37
2019-05-14T21:09:53.922Z,5.53
2019-05-14T21:12:24.405Z,5.20
2019-05-14T21:14:54.274Z,4.80
2019-05-14T21:17:23.984Z,4.70
2019-05-14T21:19:53.650Z,4.80
2019-05-14T21:22:23.351Z,5.87
2019-05-14T21:24:53.394Z,5.50
2019-05-14T21:27:40.301Z,5.13
2019-05-14T21:29:58.398Z,5.00
2019-05-14T21:32:28.409Z,4.67
2019-05-14T21:34:58.585Z,4.83
2019-05-14T21:37:29.213Z,4.20
2019-05-14T21:39:58.823Z,5.23
2019-05-14T21:42:30.068Z,4.83
2019-05-14T21:44:59.649Z,4.80
2019-05-14T21:47:30.698Z,5.00
2019-05-14T21:50:00.518Z,5.43
2019-05-14T21:52:31.160Z,5.20
2019-05-14T21:55:00.774Z,4.33
2019-05-14T21:57:30.368Z,5.37
2019-05-14T21:59:59.864Z,4.83
2019-05-14T22:02:30.481Z,4.70
2019-05-14T22:05:01.509Z,4.60
2019-05-14T22:07:31.322Z,4.77
2019-05-14T22:10:00.910Z,5.17
2019-05-14T22:12:30.576Z,4.53
2019-05-14T22:15:00.339Z,4.60
2019-05-14T22:17:29.999Z,4.87
2019-05-14T22:19:59.600Z,4.40
2019-05-14T22:22:30.847Z,4.77
2019-05-14T22:25:00.536Z,5.87
2019-05-14T22:27:30.505Z,5.33
2019-05-14T22:30:00.155Z,4.53
2019-05-14T22:32:29.734Z,5.10
2019-05-14T22:34:59.437Z,5.30
2019-05-14T22:37:29.063Z,5.30
2019-05-14T22:39:59.101Z,4.43
2019-05-14T22:42:28.828Z,4.90
2019-05-14T22:44:58.503Z,4.67
2019-05-14T22:47:28.028Z,4.57
2019-05-14T22:49:59.156Z,4.23
2019-05-14T22:52:31.211Z,4.70
2019-05-14T22:55:00.435Z,4.57
2019-05-14T22:57:31.066Z,5.37
2019-05-14T23:00:00.800Z,4.50
2019-05-14T23:02:30.506Z,4.77
2019-05-14T23:05:00.085Z,5.03
2019-05-14T23:07:29.623Z,4.83
2019-05-14T23:09:59.321Z,4.50
2019-05-14T23:12:28.929Z,5.30
2019-05-14T23:14:58.438Z,5.07
2019-05-14T23:17:28.112Z,5.50
2019-05-14T23:19:58.135Z,5.70
2019-05-14T23:22:29.655Z,5.13
2019-05-14T23:24:59.310Z,6.13
2019-05-14T23:27:29.436Z,5.60
2019-05-14T23:29:59.311Z,6.13
2019-05-14T23:32:28.979Z,5.33
2019-05-14T23:34:58.617Z,5.67
2019-05-14T23:37:29.699Z,4.50
2019-05-14T23:39:59.793Z,4.80
2019-05-14T23:42:29.398Z,4.60
2019-05-14T23:44:59.229Z,5.37
2019-05-14T23:47:29.166Z,5.40
2019-05-14T23:49:58.789Z,5.13
2019-05-14T23:52:29.329Z,5.23
2019-05-14T23:54:59.346Z,5.40
2019-05-14T23:57:28.994Z,4.33
2019-05-14T23:59:58.742Z,5.50
